Time;durP1;ratioP1;P1;durP2;ratioP2;P2;SDS_P1;SDS_P2;PMS_P1;PMS_P2;Temp;Humidity;BMP_temperature;BMP_pressure;BME280_temperature;BME280_humidity;BME280_pressure;Samples;Min_cycle;Max_cycle;Signal;HPM_P1;HPM_P2
2023/08/17 00:02:14;;;;;;;;;;;;;;;28.06;55.98;101167.84;5047964;28;19921;-85
2023/08/17 00:04:39;;;;;;;;;;;;;;;28.00;58.33;101162.56;5036032;28;19917;-85
2023/08/17 00:07:05;;;;;;;;;;;;;;;28.02;56.31;101158.06;5091296;28;20378;-84
2023/08/17 00:09:31;;;;;;;;;;;;;;;27.98;54.91;101159.91;5090718;28;19918;-84
2023/08/17 00:11:56;;;;;;;;;;;;;;;27.97;55.77;101160.81;5107291;28;20020;-83
2023/08/17 00:14:22;;;;;;;;;;;;;;;27.96;55.81;101159.03;5114179;27;19915;-83
2023/08/17 00:16:49;;;;;;;;;;;;;;;28.02;56.83;101158.06;5077503;28;19951;-83
2023/08/17 00:19:14;;;;;;;;;;;;;;;27.97;58.73;101162.59;5091655;28;19920;-84
2023/08/17 00:21:40;;;;;;;;;;;;;;;27.94;57.33;101157.25;5091479;28;19912;-84
2023/08/17 00:24:05;;;;;;;;;;;;;;;27.99;56.12;101160.78;5091949;28;19912;-84
2023/08/17 00:26:31;;;;;;;;;;;;;;;27.98;55.93;101165.28;5110294;28;19912;-84
2023/08/17 00:28:56;;;;;;;;;;;;;;;28.01;55.97;101165.22;5080874;28;20358;-84
2023/08/17 00:31:21;;;;;;;;;;;;;;;28.01;56.19;101161.66;5073194;28;20007;-84
2023/08/17 00:33:47;;;;;;;;;;;;;;;28.00;54.74;101165.25;5094646;28;19922;-84
2023/08/17 00:36:12;;;;;;;;;;;;;;;27.98;55.26;101167.97;5079723;28;19962;-83
2023/08/17 00:38:38;;;;;;;;;;;;;;;28.00;56.05;101176.88;5124392;28;19966;-83
2023/08/17 00:41:03;;;;;;;;;;;;;;;27.99;55.25;101175.09;5094739;28;19927;-83
2023/08/17 00:43:28;;;;;;;;;;;;;;;27.97;55.73;101174.22;5123453;27;19919;-83
2023/08/17 00:45:54;;;;;;;;;;;;;;;27.99;55.73;101166.16;5113900;28;19962;-83
2023/08/17 00:48:19;;;;;;;;;;;;;;;28.00;56.15;101163.47;5106317;28;19911;-84
2023/08/17 00:50:45;;;;;;;;;;;;;;;27.99;56.35;101167.03;5112060;27;19946;-84
2023/08/17 00:53:13;;;;;;;;;;;;;;;27.97;54.99;101168.84;5083372;28;19952;-84
2023/08/17 00:55:39;;;;;;;;;;;;;;;27.96;55.41;101164.41;5111723;28;19967;-84
2023/08/17 00:58:04;;;;;;;;;;;;;;;27.96;55.08;101174.22;5110070;28;19920;-83
2023/08/17 01:00:29;;;;;;;;;;;;;;;27.95;54.72;101164.41;5096342;28;19915;-83
2023/08/17 01:02:55;;;;;;;;;;;;;;;27.96;56.69;101164.41;5127784;28;20060;-83
2023/08/17 01:05:21;;;;;;;;;;;;;;;27.94;56.52;101158.16;5117018;28;19994;-83
2023/08/17 01:07:46;;;;;;;;;;;;;;;27.92;55.92;101159.97;5116807;27;19915;-82
2023/08/17 01:10:12;;;;;;;;;;;;;;;27.91;55.69;101155.50;5115650;28;19912;-83
2023/08/17 01:12:46;;;;;;;;;;;;;;;27.88;57.51;101158.22;5122412;28;19916;-82
2023/08/17 01:15:15;;;;;;;;;;;;;;;27.88;55.48;101155.56;5110739;28;19950;-81
2023/08/17 01:17:54;;;;;;;;;;;;;;;27.90;55.96;101152.81;5132214;27;20398;-82
2023/08/17 01:20:20;;;;;;;;;;;;;;;27.80;59.53;101157.41;5117091;27;19923;-82
2023/08/17 01:22:47;;;;;;;;;;;;;;;27.84;58.93;101148.41;5114347;28;19912;-82
2023/08/17 01:25:12;;;;;;;;;;;;;;;27.83;56.99;101146.59;5124969;27;19916;-81
2023/08/17 01:27:42;;;;;;;;;;;;;;;27.88;56.53;101146.63;5115586;28;19918;-84
2023/08/17 01:30:07;;;;;;;;;;;;;;;27.82;57.74;101148.41;5114579;27;20392;-82
2023/08/17 01:32:33;;;;;;;;;;;;;;;27.81;58.32;101146.66;5116469;27;20408;-83
2023/08/17 01:35:01;;;;;;;;;;;;;;;27.81;59.70;101145.72;5126757;27;19912;-83
2023/08/17 01:37:26;;;;;;;;;;;;;;;27.84;56.97;101144.84;5109841;27;19946;-83
2023/08/17 01:39:52;;;;;;;;;;;;;;;27.84;57.22;101136.78;5107234;27;19920;-85
2023/08/17 01:42:17;;;;;;;;;;;;;;;27.82;57.48;101131.44;5110587;27;19916;-82
2023/08/17 01:44:43;;;;;;;;;;;;;;;27.86;57.98;101133.19;5094004;27;19912;-83
2023/08/17 01:47:10;;;;;;;;;;;;;;;27.82;56.50;101124.25;5108411;27;20482;-84
2023/08/17 01:49:35;;;;;;;;;;;;;;;27.83;56.64;101127.81;5114690;27;19915;-84
2023/08/17 01:52:01;;;;;;;;;;;;;;;27.83;58.08;101133.19;5109771;28;20101;-85
2023/08/17 01:54:26;;;;;;;;;;;;;;;27.82;58.24;101126.06;5085192;28;19916;-84
2023/08/17 01:56:52;;;;;;;;;;;;;;;27.85;57.52;101122.44;5092244;28;19912;-84
2023/08/17 01:59:17;;;;;;;;;;;;;;;27.85;56.54;101131.38;5075827;28;19962;-83
2023/08/17 02:01:43;;;;;;;;;;;;;;;27.86;58.08;101124.28;5082845;27;20336;-83
2023/08/17 02:04:08;;;;;;;;;;;;;;;27.80;58.73;101119.81;5108777;28;19912;-83
2023/08/17 02:06:34;;;;;;;;;;;;;;;27.79;57.64;101127.00;5104061;28;19922;-83
2023/08/17 02:08:59;;;;;;;;;;;;;;;27.76;57.66;101118.06;5090854;28;19930;-82
2023/08/17 02:11:24;;;;;;;;;;;;;;;27.81;58.16;101116.22;5105203;28;19912;-82
2023/08/17 02:13:50;;;;;;;;;;;;;;;27.84;56.42;101126.94;5109041;28;20384;-83
2023/08/17 02:16:16;;;;;;;;;;;;;;;27.81;56.14;101124.25;5093583;28;19916;-84
2023/08/17 02:18:41;;;;;;;;;;;;;;;27.80;57.83;101126.06;5100392;28;19916;-83
2023/08/17 02:21:36;;;;;;;;;;;;;;;27.80;57.23;101122.50;5101330;28;19927;-83
2023/08/17 02:24:01;;;;;;;;;;;;;;;27.78;57.46;101121.63;5093621;28;19924;-83
2023/08/17 02:26:40;;;;;;;;;;;;;;;;;;;;;
2023/08/17 02:29:05;;;;;;;;;;;;;;;27.81;55.71;101130.53;5099065;28;20340;-82
2023/08/17 02:31:31;;;;;;;;;;;;;;;27.85;56.74;101127.81;5092045;28;19998;-83
2023/08/17 02:34:00;;;;;;;;;;;;;;;27.83;56.66;101127.81;5103372;28;20303;-83
2023/08/17 02:36:26;;;;;;;;;;;;;;;27.82;57.23;101132.31;5100944;27;19926;-83
2023/08/17 02:38:51;;;;;;;;;;;;;;;27.85;56.05;101133.19;5076068;28;19946;-82
2023/08/17 02:41:17;;;;;;;;;;;;;;;27.85;55.00;101130.50;5103826;28;19999;-83
2023/08/17 02:43:42;;;;;;;;;;;;;;;27.81;56.28;101135.91;5095777;28;19920;-83
2023/08/17 02:46:09;;;;;;;;;;;;;;;27.85;56.73;101136.75;5105481;28;19980;-83
2023/08/17 02:48:35;;;;;;;;;;;;;;;27.79;57.16;101135.03;5108830;27;20477;-83
2023/08/17 02:51:28;;;;;;;;;;;;;;;27.82;56.22;101148.41;5096566;28;20014;-84
2023/08/17 02:53:57;;;;;;;;;;;;;;;27.84;56.45;101139.47;5078376;28;20623;-84
2023/08/17 02:56:22;;;;;;;;;;;;;;;27.81;56.65;101141.28;5097010;28;19999;-85
2023/08/17 02:58:48;;;;;;;;;;;;;;;27.79;57.34;101142.19;5087926;28;20007;-85
2023/08/17 03:01:13;;;;;;;;;;;;;;;27.79;54.91;101151.16;5092152;28;20377;-85
2023/08/17 03:03:39;;;;;;;;;;;;;;;27.80;57.16;101154.72;5101814;27;19924;-85
2023/08/17 03:06:04;;;;;;;;;;;;;;;27.79;55.72;101156.50;5108691;27;19920;-86
2023/08/17 03:08:30;;;;;;;;;;;;;;;27.83;54.91;101149.28;5092000;28;20393;-86
2023/08/17 03:10:55;;;;;;;;;;;;;;;27.81;nan;101143.97;5116740;27;19916;-86
2023/08/17 03:13:21;;;;;;;;;;;;;;;27.81;54.12;101135.00;5096591;27;19946;-86
2023/08/17 03:15:46;;;;;;;;;;;;;;;27.80;55.85;101135.91;5101778;28;20313;-86
2023/08/17 03:18:12;;;;;;;;;;;;;;;27.82;55.69;101137.69;5118276;27;20320;-86
2023/08/17 03:20:37;;;;;;;;;;;;;;;27.80;54.77;101138.59;5111311;27;20342;-86
2023/08/17 03:23:06;;;;;;;;;;;;;;;27.80;56.25;101133.25;5094845;28;19923;-87
2023/08/17 03:25:31;;;;;;;;;;;;;;;27.81;54.76;101143.97;5109593;28;20003;-86
2023/08/17 03:27:57;;;;;;;;;;;;;;;27.79;56.06;101136.81;5105160;27;19974;-84
2023/08/17 03:30:22;;;;;;;;;;;;;;;27.80;55.55;101139.47;5099744;27;19922;-83
2023/08/17 03:32:47;;;;;;;;;;;;;;;27.81;55.06;101145.72;5084152;28;19916;-83
2023/08/17 03:35:13;;;;;;;;;;;;;;;27.78;53.92;101148.47;5081248;28;19916;-84
2023/08/17 03:37:38;;;;;;;;;;;;;;;27.81;54.47;101151.09;5088120;28;20711;-84
2023/08/17 03:40:04;;;;;;;;;;;;;;;27.80;54.45;101146.66;5090742;28;20390;-84
2023/08/17 03:42:31;;;;;;;;;;;;;;;27.80;54.24;101146.66;5096898;27;19941;-83
2023/08/17 03:44:56;;;;;;;;;;;;;;;27.79;55.71;101153.81;5116250;27;19915;-85
2023/08/17 03:47:22;;;;;;;;;;;;;;;27.76;55.61;101150.28;5100842;28;19981;-85
2023/08/17 03:49:50;;;;;;;;;;;;;;;27.80;54.72;101154.72;5126852;27;19998;-84
2023/08/17 03:52:16;;;;;;;;;;;;;;;27.78;54.34;101152.03;5103366;27;20422;-80
2023/08/17 03:54:41;;;;;;;;;;;;;;;27.79;55.01;101158.28;5104708;28;20002;-85
2023/08/17 03:57:06;;;;;;;;;;;;;;;27.76;54.86;101159.22;5100429;28;19962;-84
2023/08/17 03:59:32;;;;;;;;;;;;;;;27.79;54.63;101153.81;5101271;28;19980;-86
2023/08/17 04:01:58;;;;;;;;;;;;;;;27.75;54.74;101153.84;5113023;27;19976;-85
2023/08/17 04:04:23;;;;;;;;;;;;;;;27.75;53.10;101146.72;5095117;28;19998;-89
2023/08/17 04:06:48;;;;;;;;;;;;;;;27.74;53.26;101150.28;5101829;28;19916;-88
2023/08/17 04:09:14;;;;;;;;;;;;;;;27.69;54.82;101146.78;5094458;28;20302;-88
2023/08/17 04:11:40;;;;;;;;;;;;;;;27.71;55.35;101150.34;5106149;28;20352;-88
2023/08/17 04:14:23;;;;;;;;;;;;;;;27.74;54.17;101144.03;5129977;27;19915;-88
2023/08/17 04:17:10;;;;;;;;;;;;;;;27.76;53.88;101148.47;5116754;27;19942;-86
2023/08/17 04:20:34;;;;;;;;;;;;;;;27.74;54.57;101152.97;5131576;27;19922;-87
2023/08/17 04:26:04;;;;;;;;;;;;;;;27.71;52.81;101146.78;5100124;28;19973;-87
2023/08/17 04:28:29;;;;;;;;;;;;;;;27.73;53.91;101152.97;5097903;28;19916;-87
2023/08/17 04:30:55;;;;;;;;;;;;;;;27.73;54.60;101152.97;5096660;28;19965;-86
2023/08/17 04:33:20;;;;;;;;;;;;;;;27.71;53.41;101155.69;5083424;28;20397;-86
2023/08/17 04:36:06;;;;;;;;;;;;;;;27.68;53.79;101161.09;5089399;28;19981;-86
2023/08/17 04:38:33;;;;;;;;;;;;;;;27.72;53.40;101162.84;5109496;28;20063;-88
2023/08/17 04:41:20;;;;;;;;;;;;;;;27.70;53.83;101163.75;5076708;28;19916;-88
2023/08/17 04:43:46;;;;;;;;;;;;;;;27.71;52.54;101162.88;5103912;28;19957;-88
2023/08/17 04:46:27;;;;;;;;;;;;;;;27.70;53.94;101170.00;5107007;28;19957;-87
2023/08/17 04:48:52;;;;;;;;;;;;;;;27.70;52.99;101174.50;5076885;28;20471;-86
2023/08/17 04:51:55;;;;;;;;;;;;;;;27.70;53.27;101183.44;5100753;28;20000;-86
2023/08/17 04:54:21;;;;;;;;;;;;;;;27.71;54.18;101176.28;5107654;28;19919;-86
2023/08/17 05:03:11;;;;;;;;;;;;;;;27.71;53.33;101178.97;5085894;28;20360;-88
2023/08/17 05:05:40;;;;;;;;;;;;;;;27.69;52.87;101187.03;5066219;28;20002;-86
2023/08/17 05:08:11;;;;;;;;;;;;;;;27.71;51.82;101182.53;5081992;28;19928;-87
2023/08/17 05:10:36;;;;;;;;;;;;;;;27.71;52.90;101192.38;5088728;28;19916;-86
2023/08/17 05:13:01;;;;;;;;;;;;;;;27.70;53.09;101186.09;5120916;28;19968;-86
2023/08/17 05:15:31;;;;;;;;;;;;;;;27.72;52.86;101188.78;5115076;28;19922;-87
2023/08/17 05:17:56;;;;;;;;;;;;;;;27.70;53.18;101182.53;5100549;27;20357;-88
2023/08/17 05:20:21;;;;;;;;;;;;;;;27.68;53.59;101179.88;5106301;28;19963;-86
2023/08/17 05:22:47;;;;;;;;;;;;;;;27.71;53.21;101178.97;5120450;27;20377;-87
2023/08/17 05:25:16;;;;;;;;;;;;;;;27.68;53.74;101178.97;5115087;27;19981;-86
2023/08/17 05:27:41;;;;;;;;;;;;;;;27.69;53.25;101192.41;5110826;28;20010;-85
2023/08/17 05:30:07;;;;;;;;;;;;;;;27.70;52.23;101180.75;5120158;27;20003;-87
2023/08/17 05:32:32;;;;;;;;;;;;;;;27.70;52.71;101178.06;5100740;28;19916;-86
2023/08/17 05:38:01;;;;;;;;;;;;;;;27.70;52.25;101174.50;5118626;27;19930;-88
2023/08/17 05:40:50;;;;;;;;;;;;;;;27.70;53.39;101172.69;5129292;27;19967;-86
2023/08/17 05:43:16;;;;;;;;;;;;;;;27.70;52.43;101174.50;5112994;27;19916;-87
2023/08/17 05:45:41;;;;;;;;;;;;;;;27.69;52.41;101168.25;5130773;27;19979;-87
2023/08/17 05:48:07;;;;;;;;;;;;;;;27.66;52.64;101165.56;5091045;28;19940;-81
2023/08/17 05:50:32;;;;;;;;;;;;;;;27.69;53.14;101160.19;5111873;27;20308;-87
2023/08/17 05:52:58;;;;;;;;;;;;;;;27.68;52.65;101160.19;5112797;27;20406;-87
2023/08/17 05:55:25;;;;;;;;;;;;;;;27.64;52.29;101158.44;5111653;27;20349;-87
2023/08/17 05:58:00;;;;;;;;;;;;;;;27.69;52.87;101170.03;5140256;27;20369;-86
2023/08/17 06:03:28;;;;;;;;;;;;;;;27.68;51.64;101171.81;5124974;27;19922;-88
2023/08/17 06:05:54;;;;;;;;;;;;;;;27.68;52.78;101176.31;5101396;27;20327;-89
2023/08/17 06:08:29;;;;;;;;;;;;;;;27.70;53.03;101174.50;5112996;27;19923;-88
2023/08/17 06:10:55;;;;;;;;;;;;;;;27.66;53.67;101168.25;5111375;27;20400;-89
2023/08/17 06:13:21;;;;;;;;;;;;;;;27.63;53.52;101175.47;5125813;27;20408;-87
2023/08/17 06:15:46;;;;;;;;;;;;;;;27.67;53.23;101172.75;5115768;27;19915;-87
2023/08/17 06:18:12;;;;;;;;;;;;;;;27.68;52.54;101171.81;5107158;27;20301;-88
2023/08/17 06:20:37;;;;;;;;;;;;;;;27.67;52.25;101174.53;5112326;27;19966;-88
2023/08/17 06:23:03;;;;;;;;;;;;;;;27.67;52.01;101178.09;5126125;27;19920;-86
2023/08/17 06:25:29;;;;;;;;;;;;;;;27.67;53.65;101182.59;5109118;27;20359;-86
2023/08/17 06:27:54;;;;;;;;;;;;;;;27.69;51.92;101183.47;5097180;27;19922;-87
2023/08/17 06:30:19;;;;;;;;;;;;;;;27.67;52.16;101183.47;5126856;27;20361;-86
2023/08/17 06:32:45;;;;;;;;;;;;;;;27.64;52.32;101183.47;5107178;27;19919;-87
2023/08/17 06:35:10;;;;;;;;;;;;;;;27.66;52.03;101186.16;5117949;27;20689;-85
2023/08/17 06:37:36;;;;;;;;;;;;;;;27.69;52.18;101194.19;5103435;27;20012;-86
2023/08/17 06:40:02;;;;;;;;;;;;;;;27.65;52.89;101192.44;5101131;28;19920;-87
2023/08/17 06:42:28;;;;;;;;;;;;;;;27.67;52.42;101196.88;5088710;28;19916;-85
2023/08/17 06:44:53;;;;;;;;;;;;;;;27.68;52.83;101197.78;5106642;27;19927;-86
2023/08/17 06:47:18;;;;;;;;;;;;;;;27.67;54.07;101201.38;5069615;28;20354;-86
2023/08/17 06:49:44;;;;;;;;;;;;;;;27.68;53.42;101193.28;5099145;28;20372;-86
2023/08/17 06:52:09;;;;;;;;;;;;;;;27.68;52.95;101197.78;5110010;28;20414;-86
2023/08/17 06:54:35;;;;;;;;;;;;;;;27.71;53.54;101197.75;5090570;28;20304;-85
2023/08/17 06:57:00;;;;;;;;;;;;;;;27.67;52.45;101196.00;5103115;28;19926;-85
2023/08/17 06:59:26;;;;;;;;;;;;;;;27.69;52.59;101199.56;5082444;28;20403;-85
2023/08/17 07:01:52;;;;;;;;;;;;;;;27.70;52.73;101196.84;5103688;28;19924;-87
2023/08/17 07:04:17;;;;;;;;;;;;;;;27.69;52.43;101202.25;5088232;28;20002;-87
2023/08/17 07:06:43;;;;;;;;;;;;;;;27.74;53.26;101198.59;5108846;28;19917;-87
2023/08/17 07:09:10;;;;;;;;;;;;;;;27.69;52.37;101197.75;5078410;28;19939;-84
2023/08/17 07:11:35;;;;;;;;;;;;;;;27.68;51.91;101192.41;5096907;28;19923;-85
2023/08/17 07:14:01;;;;;;;;;;;;;;;27.70;53.77;101195.97;5092586;28;20320;-85
2023/08/17 07:16:27;;;;;;;;;;;;;;;27.70;53.08;101199.53;5109471;28;19922;-86
2023/08/17 07:18:53;;;;;;;;;;;;;;;27.69;52.31;101205.81;5091729;28;20482;-83
2023/08/17 07:21:18;;;;;;;;;;;;;;;27.71;53.29;101200.44;5080672;28;19971;-84
2023/08/17 07:23:55;;;;;;;;;;;;;;;27.71;52.18;101195.06;5103821;28;19916;-85
2023/08/17 07:26:22;;;;;;;;;;;;;;;27.71;53.31;101198.63;5068596;28;19942;-86
2023/08/17 07:28:48;;;;;;;;;;;;;;;27.74;54.14;101200.41;5094575;28;20328;-86
2023/08/17 07:31:13;;;;;;;;;;;;;;;27.72;52.62;101200.41;5103521;28;19923;-88
2023/08/17 07:33:39;;;;;;;;;;;;;;;27.74;52.95;101200.41;5088762;28;19931;-88
2023/08/17 07:36:04;;;;;;;;;;;;;;;27.75;51.84;101205.75;5101217;28;19920;-87
2023/08/17 07:38:32;;;;;;;;;;;;;;;27.72;52.38;101210.25;5115617;27;19923;-87
2023/08/17 07:40:57;;;;;;;;;;;;;;;27.72;52.71;101208.44;5127409;27;19919;-86
2023/08/17 07:43:23;;;;;;;;;;;;;;;27.71;53.82;101206.69;5103104;27;19938;-86
2023/08/17 07:45:55;;;;;;;;;;;;;;;27.72;55.62;101204.88;5121017;27;20342;-84
2023/08/17 07:48:20;;;;;;;;;;;;;;;27.71;52.88;101204.00;5103297;28;20010;-85
2023/08/17 07:50:50;;;;;;;;;;;;;;;27.73;52.49;101206.66;5120960;27;19953;-86
2023/08/17 07:53:15;;;;;;;;;;;;;;;27.73;51.65;101204.88;5100920;28;19912;-87
2023/08/17 07:55:41;;;;;;;;;;;;;;;27.74;52.43;101203.06;5111678;28;20453;-86
2023/08/17 07:58:06;;;;;;;;;;;;;;;27.71;52.08;101205.81;5122268;27;20380;-86
2023/08/17 08:00:33;;;;;;;;;;;;;;;27.74;51.96;101205.75;5137070;27;20360;-86
2023/08/17 08:02:58;;;;;;;;;;;;;;;27.73;52.78;101212.03;5115359;27;19916;-87
2023/08/17 08:05:24;;;;;;;;;;;;;;;27.74;52.28;101203.97;5121247;27;20002;-86
2023/08/17 08:07:50;;;;;;;;;;;;;;;27.75;52.96;101220.94;5116691;27;20003;-85
2023/08/17 08:10:15;;;;;;;;;;;;;;;27.74;51.76;101212.00;5118686;27;20349;-86
2023/08/17 08:12:40;;;;;;;;;;;;;;;27.74;51.89;101217.38;5130454;27;19973;-86
2023/08/17 08:15:06;;;;;;;;;;;;;;;27.76;52.18;101218.25;5122118;27;19911;-86
2023/08/17 08:17:35;;;;;;;;;;;;;;;27.78;52.97;101207.50;5093232;28;19926;-86
2023/08/17 08:20:01;;;;;;;;;;;;;;;27.79;53.10;101211.97;5109513;27;19923;-86
2023/08/17 08:22:27;;;;;;;;;;;;;;;27.80;52.43;101211.94;5125381;27;19934;-85
2023/08/17 08:24:52;;;;;;;;;;;;;;;27.78;52.27;101218.25;5111551;28;20324;-87
2023/08/17 08:27:17;;;;;;;;;;;;;;;27.78;52.59;101216.44;5101689;28;19923;-87
2023/08/17 08:29:43;;;;;;;;;;;;;;;27.75;52.52;101211.13;5133403;27;20010;-86
2023/08/17 08:32:08;;;;;;;;;;;;;;;27.79;53.65;101212.88;5118047;27;20389;-86
2023/08/17 08:34:34;;;;;;;;;;;;;;;27.79;53.44;101209.28;5114546;27;20694;-87
2023/08/17 08:36:59;;;;;;;;;;;;;;;27.80;54.10;101205.69;5132050;27;19931;-87
2023/08/17 08:39:25;;;;;;;;;;;;;;;27.79;52.95;101207.50;5106438;28;20415;-87
2023/08/17 08:41:50;;;;;;;;;;;;;;;27.80;53.57;101206.59;5137723;27;19931;-86
2023/08/17 08:44:16;;;;;;;;;;;;;;;27.81;54.20;101207.47;5116316;27;19916;-87
2023/08/17 08:46:42;;;;;;;;;;;;;;;27.81;53.33;101199.41;5101733;28;20455;-87
2023/08/17 08:49:07;;;;;;;;;;;;;;;27.80;54.43;101208.38;5113574;27;19964;-86
2023/08/17 08:51:33;;;;;;;;;;;;;;;27.82;54.02;101204.78;5137019;27;19915;-85
2023/08/17 08:54:03;;;;;;;;;;;;;;;27.84;53.52;101204.78;5094958;28;19912;-86
2023/08/17 08:56:32;;;;;;;;;;;;;;;27.84;54.48;101198.53;5113034;28;20384;-86
2023/08/17 08:58:57;;;;;;;;;;;;;;;27.84;54.57;101202.09;5100039;27;19971;-85
2023/08/17 09:01:23;;;;;;;;;;;;;;;27.82;54.81;101206.56;5108073;27;19919;-85
2023/08/17 09:03:48;;;;;;;;;;;;;;;27.89;55.80;101210.13;5123943;27;19915;-86
2023/08/17 09:06:14;;;;;;;;;;;;;;;27.89;54.93;101207.44;5104031;28;20373;-86
2023/08/17 09:08:40;;;;;;;;;;;;;;;27.89;55.86;101204.75;5096252;28;19919;-87
2023/08/17 09:11:05;;;;;;;;;;;;;;;27.89;54.88;101207.44;5118727;28;19915;-87
2023/08/17 09:13:30;;;;;;;;;;;;;;;27.90;54.84;101214.56;5130362;28;19967;-86
2023/08/17 09:15:57;;;;;;;;;;;;;;;27.89;54.54;101208.31;5111504;28;20444;-86
2023/08/17 09:18:22;;;;;;;;;;;;;;;27.89;56.30;101212.81;5096013;28;19967;-86
2023/08/17 09:20:47;;;;;;;;;;;;;;;27.91;55.30;101201.13;5106716;28;20010;-87
2023/08/17 09:23:17;;;;;;;;;;;;;;;27.93;55.97;101201.13;5099271;28;20407;-85
2023/08/17 09:25:43;;;;;;;;;;;;;;;27.93;55.58;101207.38;5106584;28;19916;-85
2023/08/17 09:28:09;;;;;;;;;;;;;;;27.89;56.14;101205.63;5096111;28;19915;-85
2023/08/17 09:30:55;;;;;;;;;;;;;;;27.87;56.36;101210.13;5083981;28;19916;-84
2023/08/17 09:33:21;;;;;;;;;;;;;;;27.90;55.52;101209.19;5124801;27;19924;-84
2023/08/17 09:35:47;;;;;;;;;;;;;;;27.89;55.20;101212.81;5094293;28;19922;-85
2023/08/17 09:38:12;;;;;;;;;;;;;;;27.91;55.20;101201.13;5115509;28;19920;-85
2023/08/17 09:40:38;;;;;;;;;;;;;;;27.89;56.25;101204.75;5111801;28;19924;-84
2023/08/17 09:43:04;;;;;;;;;;;;;;;27.92;55.70;101212.75;5111123;28;19916;-85
2023/08/17 09:45:31;;;;;;;;;;;;;;;27.92;55.73;101212.75;5064165;28;19939;-85
2023/08/17 09:48:00;;;;;;;;;;;;;;;27.92;55.91;101210.06;5112297;27;19969;-85
2023/08/17 09:50:25;;;;;;;;;;;;;;;27.95;55.77;101204.69;5092544;28;19970;-86
2023/08/17 09:52:54;;;;;;;;;;;;;;;27.87;56.61;101210.13;5112633;28;20300;-84
2023/08/17 09:55:23;;;;;;;;;;;;;;;27.93;56.58;101215.44;5081617;28;19920;-85
2023/08/17 09:57:49;;;;;;;;;;;;;;;27.91;56.82;101216.34;5123859;27;19915;-85
2023/08/17 10:00:14;;;;;;;;;;;;;;;27.95;56.41;101216.31;5082626;28;19923;-86
2023/08/17 10:02:40;;;;;;;;;;;;;;;27.96;57.41;101219.88;5094004;28;19916;-85
2023/08/17 10:05:05;;;;;;;;;;;;;;;28.00;56.71;101221.63;5081903;28;19969;-85
2023/08/17 10:07:31;;;;;;;;;;;;;;;27.99;56.65;101217.16;5115790;27;20672;-85
2023/08/17 10:09:57;;;;;;;;;;;;;;;27.99;56.53;101218.06;5100870;27;19958;-85
2023/08/17 10:12:29;;;;;;;;;;;;;;;28.01;56.60;101215.34;5119804;27;19916;-84
2023/08/17 10:15:02;;;;;;;;;;;;;;;27.96;57.57;101219.88;5108498;27;19926;-85
2023/08/17 10:17:39;;;;;;;;;;;;;;;28.04;57.13;101223.38;5104026;28;19912;-86
2023/08/17 10:20:05;;;;;;;;;;;;;;;28.00;57.35;101227.91;5079838;28;20316;-83
2023/08/17 10:22:31;;;;;;;;;;;;;;;28.04;56.78;101227.84;5067806;28;20015;-84
2023/08/17 10:25:03;;;;;;;;;;;;;;;28.04;56.15;101227.84;5106706;28;19916;-85
2023/08/17 10:27:28;;;;;;;;;;;;;;;28.05;56.49;101233.22;5117534;27;19919;-84
2023/08/17 10:30:19;;;;;;;;;;;;;;;28.07;56.76;101226.03;5096255;28;19911;-86
2023/08/17 10:32:46;;;;;;;;;;;;;;;28.07;56.10;101227.81;5079617;28;20452;-85
2023/08/17 10:35:18;;;;;;;;;;;;;;;28.10;56.87;101230.47;5104893;28;19947;-86
2023/08/17 10:37:43;;;;;;;;;;;;;;;28.08;56.02;101224.22;5109627;28;19976;-86
2023/08/17 10:40:19;;;;;;;;;;;;;;;28.05;56.33;101221.59;5102461;27;20374;-84
2023/08/17 10:42:46;;;;;;;;;;;;;;;28.02;56.09;101227.84;5118341;27;19922;-85
2023/08/17 10:45:30;;;;;;;;;;;;;;;27.89;55.79;101188.63;5109319;27;19927;-84
2023/08/17 10:48:05;;;;;;;;;;;;;;;28.09;56.65;101216.16;5125056;27;19922;-87
2023/08/17 10:50:32;;;;;;;;;;;;;;;28.10;56.17;101217.94;5123301;27;19916;-86
2023/08/17 10:52:58;;;;;;;;;;;;;;;28.11;55.92;101225.09;5131076;27;19935;-85
2023/08/17 10:55:37;;;;;;;;;;;;;;;28.11;57.48;101214.34;5116949;27;19922;-88
2023/08/17 10:58:13;;;;;;;;;;;;;;;28.08;57.32;101221.53;5097924;27;19922;-86
2023/08/17 11:00:42;;;;;;;;;;;;;;;28.09;56.57;101221.53;5100047;27;20461;-87
2023/08/17 11:03:45;;;;;;;;;;;;;;;28.15;56.71;101218.78;5119291;27;19912;-86
2023/08/17 11:06:32;;;;;;;;;;;;;;;28.12;57.89;101217.91;5067729;28;19976;-87
2023/08/17 11:12:01;;;;;;;;;;;;;;;28.15;57.10;101207.13;5128685;27;19922;-89
2023/08/17 11:14:38;;;;;;;;;;;;;;;28.15;57.40;101213.41;5109163;27;19923;-89
2023/08/17 11:17:09;;;;;;;;;;;;;;;28.15;57.54;101205.34;5109687;27;19916;-89
2023/08/17 11:19:39;;;;;;;;;;;;;;;28.16;57.41;101216.97;5107504;27;19916;-89
2023/08/17 11:22:06;;;;;;;;;;;;;;;28.17;57.15;101219.66;5133028;27;19919;-89
2023/08/17 11:27:34;;;;;;;;;;;;;;;28.23;57.85;101211.50;5133043;27;19919;-87
2023/08/17 11:30:01;;;;;;;;;;;;;;;28.23;57.06;101206.13;5132105;27;19915;-86
2023/08/17 11:32:31;;;;;;;;;;;;;;;28.26;57.43;101207.00;5117679;27;19919;-86
2023/08/17 11:35:04;;;;;;;;;;;;;;;28.28;56.60;101206.09;5111476;27;20292;-87
2023/08/17 11:37:32;;;;;;;;;;;;;;;28.27;56.96;101212.34;5115774;27;19928;-88
2023/08/17 11:39:58;;;;;;;;;;;;;;;28.28;57.15;101208.78;5101459;28;19927;-86
2023/08/17 11:42:23;;;;;;;;;;;;;;;28.29;56.91;101202.47;5101960;28;19916;-86
2023/08/17 11:44:48;;;;;;;;;;;;;;;28.30;57.63;101211.41;5121507;27;19916;-86
2023/08/17 11:47:14;;;;;;;;;;;;;;;28.31;56.88;101206.03;5113366;27;19916;-86
2023/08/17 11:49:40;;;;;;;;;;;;;;;28.33;56.80;101206.03;5106958;28;19973;-87
2023/08/17 11:52:08;;;;;;;;;;;;;;;28.35;56.62;101206.91;5108401;28;19919;-86
2023/08/17 11:54:34;;;;;;;;;;;;;;;28.32;56.90;101205.16;5098135;28;20385;-86
2023/08/17 11:56:59;;;;;;;;;;;;;;;28.34;57.07;101210.47;5115718;27;19915;-87
2023/08/17 11:59:30;;;;;;;;;;;;;;;28.34;56.73;101208.72;5112807;28;20455;-87
2023/08/17 12:01:56;;;;;;;;;;;;;;;28.38;56.90;101213.09;5109716;27;19920;-88
2023/08/17 12:04:23;;;;;;;;;;;;;;;28.34;57.96;101213.16;5096337;28;19922;-88
2023/08/17 12:06:48;;;;;;;;;;;;;;;28.29;57.88;101210.53;5091604;28;19919;-88
2023/08/17 12:09:14;;;;;;;;;;;;;;;28.38;58.26;101214.91;5109929;27;19943;-87
2023/08/17 12:11:39;;;;;;;;;;;;;;;28.35;58.21;101217.66;5090947;28;19923;-87
2023/08/17 12:14:13;;;;;;;;;;;;;;;28.37;57.85;101215.84;5098900;28;19946;-86
2023/08/17 12:16:48;;;;;;;;;;;;;;;28.42;57.90;101214.84;5097752;28;20084;-88
2023/08/17 12:19:14;;;;;;;;;;;;;;;28.46;57.74;101217.50;5127926;27;19949;-87
2023/08/17 12:21:41;;;;;;;;;;;;;;;28.43;57.49;101216.63;5098252;27;19923;-88
2023/08/17 12:24:07;;;;;;;;;;;;;;;28.46;57.93;101223.75;5102844;28;19919;-86
2023/08/17 12:26:35;;;;;;;;;;;;;;;28.42;57.92;101209.47;5094817;28;20010;-89
2023/08/17 12:29:02;;;;;;;;;;;;;;;28.47;57.53;101222.88;5106416;28;19924;-90
2023/08/17 12:31:28;;;;;;;;;;;;;;;28.51;57.47;101218.34;5097364;28;19912;-88
2023/08/17 12:33:55;;;;;;;;;;;;;;;28.50;58.44;101217.47;5117440;27;19923;-86
2023/08/17 12:36:21;;;;;;;;;;;;;;;28.47;57.86;101219.28;5110046;28;19912;-89
2023/08/17 12:38:47;;;;;;;;;;;;;;;28.42;59.36;101206.78;5113086;27;20010;-90
2023/08/17 12:41:13;;;;;;;;;;;;;;;28.43;58.48;101211.25;5095074;27;19927;-90
2023/08/17 12:43:40;;;;;;;;;;;;;;;28.48;58.62;101219.25;5105492;27;19923;-88
2023/08/17 12:46:05;;;;;;;;;;;;;;;28.48;58.68;101211.19;5112264;28;19973;-88
2023/08/17 12:48:30;;;;;;;;;;;;;;;28.47;58.49;101212.13;5090571;28;19920;-89
2023/08/17 12:50:56;;;;;;;;;;;;;;;28.53;58.19;101217.44;5096769;28;19922;-90
2023/08/17 12:53:22;;;;;;;;;;;;;;;28.52;58.25;101212.97;5094258;28;19912;-89
2023/08/17 12:55:47;;;;;;;;;;;;;;;28.49;58.35;101218.41;5114926;28;19916;-89
2023/08/17 12:58:17;;;;;;;;;;;;;;;28.49;58.40;101207.66;5107674;28;19922;-89
2023/08/17 13:00:43;;;;;;;;;;;;;;;28.55;57.64;101212.03;5101941;28;19919;-90
2023/08/17 13:03:08;;;;;;;;;;;;;;;28.53;59.13;101214.78;5121434;28;20747;-88